createdAt,value
2018-08-12T00:01:31.834Z,20.82
2018-08-12T00:03:59.929Z,20.75
2018-08-12T00:06:28.038Z,20.52
2018-08-12T00:08:56.301Z,20.70
2018-08-12T00:11:25.359Z,20.71
2018-08-12T00:13:53.508Z,20.79
2018-08-12T00:16:21.711Z,20.58
2018-08-12T00:18:49.955Z,20.75
2018-08-12T00:21:18.025Z,20.53
2018-08-12T00:23:46.126Z,20.45
2018-08-12T00:26:14.204Z,20.60
2018-08-12T00:28:42.585Z,20.53
2018-08-12T00:31:16.132Z,20.50
2018-08-12T00:33:48.996Z,20.79
2018-08-12T00:36:17.237Z,20.70
2018-08-12T00:38:45.461Z,20.75
2018-08-12T00:41:13.564Z,20.62
2018-08-12T00:43:41.685Z,20.38
2018-08-12T00:46:09.769Z,20.46
2018-08-12T00:48:37.822Z,20.68
2018-08-12T00:51:06.300Z,20.48
2018-08-12T00:53:34.382Z,20.42
2018-08-12T00:56:02.835Z,20.01
2018-08-12T00:58:30.989Z,19.84
2018-08-12T01:00:59.767Z,19.73
2018-08-12T01:03:28.178Z,19.79
2018-08-12T01:05:56.442Z,19.73
2018-08-12T01:08:25.428Z,20.00
2018-08-12T01:10:53.554Z,20.13
2018-08-12T01:13:21.637Z,20.16
2018-08-12T01:15:49.737Z,20.05
2018-08-12T01:18:17.844Z,20.24
2018-08-12T01:20:45.984Z,20.15
2018-08-12T01:23:14.188Z,19.82
2018-08-12T01:25:42.257Z,19.66
2018-08-12T01:28:10.401Z,19.61
2018-08-12T01:30:38.529Z,19.51
2018-08-12T01:33:07.023Z,19.84
2018-08-12T01:35:35.078Z,19.42
2018-08-12T01:38:03.214Z,19.39
2018-08-12T01:40:31.302Z,19.33
2018-08-12T01:42:59.395Z,19.41
2018-08-12T01:45:27.515Z,19.25
2018-08-12T01:47:55.739Z,19.32
2018-08-12T01:50:23.813Z,19.18
2018-08-12T01:52:51.910Z,19.22
2018-08-12T01:55:20.154Z,19.43
2018-08-12T01:57:48.199Z,19.50
2018-08-12T02:00:18.929Z,19.69
2018-08-12T02:02:47.575Z,19.43
2018-08-12T02:05:16.100Z,19.02
2018-08-12T02:07:44.341Z,18.79
2018-08-12T02:10:12.453Z,18.94
2018-08-12T02:12:40.829Z,19.03
2018-08-12T02:15:10.147Z,19.13
2018-08-12T02:17:38.510Z,19.01
2018-08-12T02:20:07.146Z,18.95
2018-08-12T02:22:35.200Z,18.73
2018-08-12T02:25:03.363Z,18.68
2018-08-12T02:27:31.444Z,18.82
2018-08-12T02:29:59.625Z,18.67
2018-08-12T02:32:27.858Z,18.63
2018-08-12T02:34:55.943Z,18.79
2018-08-12T02:37:23.997Z,18.66
2018-08-12T02:39:52.244Z,18.55
2018-08-12T02:42:20.484Z,18.58
2018-08-12T02:44:48.645Z,18.58
2018-08-12T02:47:16.822Z,18.50
2018-08-12T02:49:44.956Z,18.51
2018-08-12T02:52:13.143Z,18.49
2018-08-12T02:54:41.443Z,18.50
2018-08-12T02:57:09.535Z,18.56
2018-08-12T02:59:37.605Z,18.41
2018-08-12T03:02:05.820Z,18.61
2018-08-12T03:04:33.938Z,18.33
2018-08-12T03:07:02.095Z,18.35
2018-08-12T03:09:30.198Z,18.31
2018-08-12T03:11:58.305Z,18.30
2018-08-12T03:14:26.342Z,18.39
2018-08-12T03:16:54.515Z,18.33
2018-08-12T03:19:22.636Z,18.27
2018-08-12T03:21:50.736Z,18.26
2018-08-12T03:24:18.815Z,18.22
2018-08-12T03:26:46.879Z,18.08
2018-08-12T03:29:14.990Z,18.21
2018-08-12T03:31:43.090Z,18.18
2018-08-12T03:34:11.225Z,18.10
2018-08-12T03:36:39.481Z,18.02
2018-08-12T03:39:09.056Z,18.04
2018-08-12T03:41:44.530Z,18.03
2018-08-12T03:44:12.606Z,17.93
2018-08-12T03:46:40.660Z,17.82
2018-08-12T03:49:08.729Z,17.87
2018-08-12T03:51:36.818Z,18.07
2018-08-12T03:54:04.904Z,17.91
2018-08-12T03:56:33.052Z,18.04
2018-08-12T03:59:01.265Z,17.73
2018-08-12T04:01:29.351Z,17.63
2018-08-12T04:03:57.422Z,17.87
2018-08-12T04:06:26.155Z,17.63
2018-08-12T04:08:54.286Z,17.64
2018-08-12T04:11:22.389Z,17.48
2018-08-12T04:13:50.441Z,17.54
2018-08-12T04:16:18.598Z,17.58
2018-08-12T04:18:47.122Z,17.62
2018-08-12T04:21:15.303Z,18.03
2018-08-12T04:23:43.477Z,17.63
2018-08-12T04:26:11.565Z,17.63
2018-08-12T04:28:39.609Z,17.23
2018-08-12T04:31:07.682Z,17.48
2018-08-12T04:33:35.727Z,17.41
2018-08-12T04:36:03.810Z,17.48
2018-08-12T04:38:31.882Z,17.45
2018-08-12T04:40:59.945Z,17.81
2018-08-12T04:43:28.038Z,17.71
2018-08-12T04:45:56.402Z,17.42
2018-08-12T04:48:24.466Z,17.81
2018-08-12T04:50:52.540Z,17.79
2018-08-12T04:53:20.593Z,17.71
2018-08-12T04:55:48.754Z,17.78
2018-08-12T04:58:16.963Z,17.59
2018-08-12T05:00:45.042Z,17.82
2018-08-12T05:03:13.161Z,17.78
2018-08-12T05:05:41.366Z,17.57
2018-08-12T05:08:09.530Z,17.82
2018-08-12T05:10:37.653Z,17.82
2018-08-12T05:13:05.870Z,17.64
2018-08-12T05:15:34.082Z,17.64
2018-08-12T05:18:02.338Z,17.61
2018-08-12T05:20:30.498Z,17.75
2018-08-12T05:22:58.704Z,18.00
2018-08-12T05:25:26.846Z,17.86
2018-08-12T05:27:55.043Z,17.97
2018-08-12T05:30:23.117Z,18.01
2018-08-12T05:32:51.241Z,17.96
2018-08-12T05:35:19.363Z,17.94
2018-08-12T05:37:47.570Z,17.89
2018-08-12T05:40:16.742Z,18.16
2018-08-12T05:42:44.902Z,18.12
2018-08-12T05:45:13.070Z,18.23
2018-08-12T05:47:41.183Z,18.47
2018-08-12T05:50:10.466Z,18.62
2018-08-12T05:52:38.598Z,18.41
2018-08-12T05:55:07.202Z,18.42
2018-08-12T05:57:35.360Z,18.41
2018-08-12T06:00:03.649Z,18.51
2018-08-12T06:02:31.731Z,18.59
2018-08-12T06:04:59.932Z,18.72
2018-08-12T06:07:28.001Z,18.52
2018-08-12T06:09:56.951Z,18.57
2018-08-12T06:12:25.120Z,18.72
2018-08-12T06:14:53.223Z,18.67
2018-08-12T06:17:21.508Z,18.86
2018-08-12T06:19:49.658Z,18.58
2018-08-12T06:22:17.771Z,18.52
2018-08-12T06:27:24.443Z,18.97
2018-08-12T06:29:52.544Z,18.85
2018-08-12T06:32:20.749Z,18.80
2018-08-12T06:34:48.782Z,19.22
2018-08-12T06:37:16.959Z,19.18
2018-08-12T06:39:45.138Z,19.24
2018-08-12T06:42:13.406Z,19.36
2018-08-12T06:44:41.550Z,19.50
2018-08-12T06:47:09.790Z,19.40
2018-08-12T06:49:37.918Z,19.30
2018-08-12T06:52:06.138Z,19.63
2018-08-12T06:54:34.260Z,19.67
2018-08-12T06:57:02.400Z,19.59
2018-08-12T06:59:30.538Z,19.67
2018-08-12T07:01:58.676Z,19.47
2018-08-12T07:04:27.514Z,19.59
2018-08-12T07:06:56.099Z,19.75
2018-08-12T07:09:24.954Z,19.92
2018-08-12T07:11:53.070Z,19.96
2018-08-12T07:14:21.340Z,19.82
2018-08-12T07:16:49.406Z,19.89
2018-08-12T07:19:17.506Z,20.11
2018-08-12T07:21:45.622Z,20.12
2018-08-12T07:24:13.684Z,20.26
2018-08-12T07:26:41.771Z,20.28
2018-08-12T07:29:09.856Z,20.27
2018-08-12T07:31:37.952Z,20.35
2018-08-12T07:34:06.072Z,20.42
2018-08-12T07:36:34.316Z,20.35
2018-08-12T07:39:03.305Z,20.42
2018-08-12T07:41:31.466Z,20.58
2018-08-12T07:43:59.687Z,20.75
2018-08-12T07:46:27.786Z,20.57
2018-08-12T07:48:55.923Z,20.66
2018-08-12T07:51:24.001Z,20.39
2018-08-12T07:53:52.138Z,20.45
2018-08-12T07:56:20.278Z,20.64
2018-08-12T07:58:48.385Z,20.74
2018-08-12T08:01:16.438Z,20.84
2018-08-12T08:03:44.531Z,20.91
2018-08-12T08:06:12.600Z,20.52
2018-08-12T08:08:40.679Z,20.71
2018-08-12T08:11:08.848Z,20.85
2018-08-12T08:13:36.910Z,20.86
2018-08-12T08:16:05.033Z,21.10
2018-08-12T08:18:33.310Z,21.29
2018-08-12T08:21:01.390Z,21.45
2018-08-12T08:23:29.487Z,21.31
2018-08-12T08:25:59.650Z,21.51
2018-08-12T08:28:27.790Z,21.47
2018-08-12T08:30:55.888Z,21.64
2018-08-12T08:33:24.034Z,21.75
2018-08-12T08:35:52.146Z,21.80
2018-08-12T08:38:20.226Z,21.79
2018-08-12T08:40:48.444Z,21.86
2018-08-12T08:43:16.603Z,21.98
2018-08-12T08:45:44.737Z,22.06
2018-08-12T08:48:12.851Z,22.06
2018-08-12T08:50:41.095Z,22.06
2018-08-12T08:53:09.239Z,22.18
2018-08-12T08:55:37.411Z,22.26
2018-08-12T08:58:05.528Z,22.25
2018-08-12T09:00:33.897Z,22.35
2018-08-12T09:03:02.017Z,22.44
2018-08-12T09:05:30.180Z,22.51
2018-08-12T09:07:58.402Z,22.51
2018-08-12T09:10:26.435Z,22.57
2018-08-12T09:12:54.709Z,22.70
2018-08-12T09:15:22.902Z,22.74
2018-08-12T09:17:51.022Z,22.73
2018-08-12T09:20:20.582Z,22.87
2018-08-12T09:22:48.702Z,22.87
2018-08-12T09:25:17.129Z,22.90
2018-08-12T09:27:45.260Z,22.96
2018-08-12T09:30:15.418Z,23.04
2018-08-12T09:32:44.134Z,23.02
2018-08-12T09:35:12.267Z,23.09
2018-08-12T09:37:40.462Z,23.01
2018-08-12T09:40:11.209Z,23.13
2018-08-12T09:42:39.677Z,23.27
2018-08-12T09:45:09.808Z,23.42
2018-08-12T09:47:38.770Z,23.38
2018-08-12T09:50:07.368Z,23.48
2018-08-12T09:52:35.982Z,23.64
2018-08-12T09:55:04.963Z,23.58
2018-08-12T09:57:33.190Z,23.85
2018-08-12T10:00:01.414Z,23.89
2018-08-12T10:02:29.511Z,23.73
2018-08-12T10:04:58.162Z,23.90
2018-08-12T10:07:26.326Z,24.13
2018-08-12T10:09:54.519Z,24.29
2018-08-12T10:12:22.614Z,24.36
2018-08-12T10:14:50.739Z,24.40
2018-08-12T10:17:18.989Z,24.35
2018-08-12T10:19:47.169Z,24.49
2018-08-12T10:22:15.315Z,24.50
2018-08-12T10:24:43.440Z,24.63
2018-08-12T10:27:11.704Z,24.46
2018-08-12T10:29:39.879Z,24.70
2018-08-12T10:32:08.310Z,24.84
2018-08-12T10:34:36.436Z,24.88
2018-08-12T10:37:04.626Z,25.01
2018-08-12T10:39:32.834Z,25.22
2018-08-12T10:42:01.011Z,25.45
2018-08-12T10:44:29.235Z,25.52
2018-08-12T10:47:00.310Z,25.69
2018-08-12T10:49:29.138Z,25.52
2018-08-12T10:51:58.074Z,25.38
2018-08-12T10:54:26.187Z,25.89
2018-08-12T10:56:54.396Z,25.96
2018-08-12T10:59:22.695Z,26.03
2018-08-12T11:01:50.905Z,26.37
2018-08-12T11:04:19.060Z,26.57
2018-08-12T11:06:49.078Z,26.68
2018-08-12T11:09:22.500Z,26.80
2018-08-12T11:11:50.640Z,26.87
2018-08-12T11:14:18.736Z,26.90
2018-08-12T11:16:46.892Z,27.07
2018-08-12T11:19:15.136Z,27.21
2018-08-12T11:21:43.318Z,27.62
2018-08-12T11:24:11.826Z,27.81
2018-08-12T11:26:40.268Z,28.10
2018-08-12T11:29:08.513Z,28.36
2018-08-12T11:31:36.753Z,28.41
2018-08-12T11:34:04.878Z,28.82
2018-08-12T11:36:33.054Z,29.02
2018-08-12T11:39:01.702Z,29.53
2018-08-12T11:41:30.067Z,30.10
2018-08-12T11:43:58.171Z,30.30
2018-08-12T11:46:26.366Z,31.13
2018-08-12T11:48:54.652Z,31.31
2018-08-12T11:51:22.783Z,31.72
2018-08-12T11:53:53.024Z,32.01
2018-08-12T11:56:21.206Z,32.23
2018-08-12T11:58:50.502Z,32.68
2018-08-12T12:01:18.682Z,32.71
2018-08-12T12:03:46.947Z,33.11
2018-08-12T12:06:15.107Z,32.48
2018-08-12T12:08:43.256Z,34.07
2018-08-12T12:11:12.085Z,33.99
2018-08-12T12:13:40.205Z,35.00
2018-08-12T12:16:08.378Z,34.89
2018-08-12T12:18:37.314Z,35.78
2018-08-12T12:21:05.748Z,36.25
2018-08-12T12:23:33.921Z,36.52
2018-08-12T12:26:02.813Z,36.68
2018-08-12T12:28:33.480Z,37.89
2018-08-12T12:31:01.877Z,38.85
2018-08-12T12:33:30.080Z,39.37
2018-08-12T12:35:59.017Z,37.63
2018-08-12T12:38:27.216Z,39.16
2018-08-12T12:40:55.798Z,39.12
2018-08-12T12:43:24.549Z,39.82
2018-08-12T12:45:52.934Z,40.43
2018-08-12T12:48:21.295Z,41.95
2018-08-12T12:53:29.105Z,40.99
2018-08-12T12:55:57.354Z,42.28
2018-08-12T12:58:25.635Z,42.01
2018-08-12T13:00:53.904Z,43.18
2018-08-12T13:03:22.151Z,43.16
2018-08-12T13:05:51.846Z,45.02
2018-08-12T13:08:19.917Z,45.14
2018-08-12T13:10:48.042Z,44.51
2018-08-12T13:13:16.276Z,44.46
2018-08-12T13:15:44.584Z,44.94
2018-08-12T13:18:12.841Z,47.59
2018-08-12T13:20:44.042Z,47.72
2018-08-12T13:23:12.234Z,46.66
2018-08-12T13:25:40.384Z,46.42
2018-08-12T13:28:08.664Z,43.42
2018-08-12T13:30:37.118Z,45.52
2018-08-12T13:33:05.693Z,47.59
2018-08-12T13:35:33.891Z,47.63
2018-08-12T13:38:02.032Z,48.20
2018-08-12T13:40:30.266Z,47.34
2018-08-12T13:43:01.091Z,44.78
2018-08-12T13:45:29.150Z,44.29
2018-08-12T13:47:57.243Z,45.08
2018-08-12T13:50:25.417Z,47.42
2018-08-12T13:52:54.337Z,48.21
2018-08-12T13:55:23.177Z,47.72
2018-08-12T13:57:52.078Z,46.81
2018-08-12T14:00:22.019Z,47.52
2018-08-12T14:02:50.170Z,46.41
2018-08-12T14:05:18.970Z,47.51
2018-08-12T14:07:47.950Z,47.37
2018-08-12T14:10:16.134Z,48.14
2018-08-12T14:12:44.311Z,49.85
2018-08-12T14:15:14.909Z,50.93
2018-08-12T14:17:44.210Z,51.84
2018-08-12T14:20:14.945Z,51.54
2018-08-12T14:22:43.115Z,52.76
2018-08-12T14:25:11.613Z,50.53
2018-08-12T14:27:41.206Z,51.30
2018-08-12T14:30:11.967Z,52.61
2018-08-12T14:32:40.954Z,48.35
2018-08-12T14:35:09.150Z,49.69
2018-08-12T14:37:37.773Z,50.22
2018-08-12T14:40:06.787Z,50.72
2018-08-12T14:42:34.971Z,48.74
2018-08-12T14:45:03.191Z,51.14
2018-08-12T14:47:31.438Z,51.59
2018-08-12T14:49:59.632Z,50.90
2018-08-12T14:52:27.821Z,51.81
2018-08-12T14:54:56.068Z,49.25
2018-08-12T14:57:24.962Z,48.19
2018-08-12T14:59:53.330Z,49.98
2018-08-12T15:02:21.613Z,48.84
2018-08-12T15:04:50.070Z,45.33
2018-08-12T15:07:18.392Z,44.57
2018-08-12T15:09:46.725Z,47.84
2018-08-12T15:12:15.101Z,45.23
2018-08-12T15:14:43.434Z,47.73
2018-08-12T15:17:11.587Z,46.33
2018-08-12T15:19:40.962Z,46.76
2018-08-12T15:22:09.681Z,49.61
2018-08-12T15:24:37.820Z,49.86
2018-08-12T15:27:06.121Z,48.82
2018-08-12T15:29:34.711Z,46.82
2018-08-12T15:32:03.842Z,47.79
2018-08-12T15:34:32.163Z,46.56
2018-08-12T15:37:00.311Z,50.01
2018-08-12T15:39:29.554Z,46.54
2018-08-12T15:41:57.636Z,45.50
2018-08-12T15:44:25.783Z,42.73
2018-08-12T15:46:53.932Z,42.59
2018-08-12T15:49:22.334Z,43.66
2018-08-12T15:51:50.484Z,44.99
2018-08-12T15:54:18.581Z,44.70
2018-08-12T15:56:46.730Z,45.29
2018-08-12T15:59:14.859Z,46.66
2018-08-12T16:01:43.232Z,45.14
2018-08-12T16:04:11.385Z,45.83
2018-08-12T16:06:42.239Z,45.28
2018-08-12T16:09:11.915Z,44.14
2018-08-12T16:11:40.197Z,44.53
2018-08-12T16:14:09.139Z,43.10
2018-08-12T16:16:37.202Z,42.74
2018-08-12T16:19:07.134Z,44.71
2018-08-12T16:21:35.544Z,44.21
2018-08-12T16:24:03.868Z,44.61
2018-08-12T16:26:31.979Z,42.78
2018-08-12T16:29:00.364Z,42.64
2018-08-12T16:31:45.639Z,40.48
2018-08-12T16:34:13.789Z,39.07
2018-08-12T16:36:41.981Z,37.72
2018-08-12T16:39:12.164Z,37.46
2018-08-12T16:41:40.336Z,37.87
2018-08-12T16:44:08.470Z,36.72
2018-08-12T16:46:36.568Z,36.00
2018-08-12T16:49:04.650Z,36.69
2018-08-12T16:51:32.733Z,35.51
2018-08-12T16:54:00.924Z,35.02
2018-08-12T16:56:29.778Z,34.80
2018-08-12T16:58:57.888Z,35.15
2018-08-12T17:01:26.209Z,35.37
2018-08-12T17:03:54.528Z,34.27
2018-08-12T17:06:22.808Z,35.08
2018-08-12T17:08:52.262Z,35.17
2018-08-12T17:11:20.811Z,33.70
2018-08-12T17:13:49.078Z,34.25
2018-08-12T17:16:17.202Z,33.95
2018-08-12T17:18:45.312Z,34.43
2018-08-12T17:21:13.428Z,34.72
2018-08-12T17:23:48.782Z,33.88
2018-08-12T17:26:16.852Z,33.22
2018-08-12T17:28:45.022Z,33.34
2018-08-12T17:31:13.386Z,32.86
2018-08-12T17:33:41.465Z,32.94
2018-08-12T17:36:09.767Z,32.66
2018-08-12T17:38:38.072Z,33.00
2018-08-12T17:41:06.141Z,33.02
2018-08-12T17:43:34.492Z,33.35
2018-08-12T17:46:02.755Z,33.31
2018-08-12T17:48:32.503Z,33.32
2018-08-12T17:51:00.750Z,33.36
2018-08-12T17:58:26.981Z,32.60
2018-08-12T18:00:55.340Z,32.46
2018-08-12T18:03:23.555Z,32.58
2018-08-12T18:05:51.849Z,32.61
2018-08-12T18:08:20.327Z,32.26
2018-08-12T18:10:48.453Z,32.52
2018-08-12T18:13:16.562Z,32.48
2018-08-12T18:15:44.781Z,32.25
2018-08-12T18:18:12.961Z,32.44
2018-08-12T18:20:41.071Z,32.10
2018-08-12T18:23:09.091Z,32.22
2018-08-12T18:25:37.143Z,32.13
2018-08-12T18:28:05.462Z,32.07
2018-08-12T18:30:33.614Z,32.02
2018-08-12T18:33:01.718Z,31.85
2018-08-12T18:35:30.125Z,31.66
2018-08-12T18:37:58.218Z,31.44
2018-08-12T18:40:26.326Z,31.30
2018-08-12T18:42:54.461Z,31.31
2018-08-12T18:45:22.571Z,31.12
2018-08-12T18:47:50.909Z,30.83
2018-08-12T18:50:19.086Z,30.87
2018-08-12T18:52:47.213Z,30.69
2018-08-12T18:55:15.432Z,30.51
2018-08-12T18:57:43.528Z,30.63
2018-08-12T19:00:13.182Z,30.51
2018-08-12T19:02:41.607Z,30.28
2018-08-12T19:05:11.002Z,30.23
2018-08-12T19:07:39.330Z,30.05
2018-08-12T19:10:08.637Z,29.95
2018-08-12T19:12:36.846Z,29.91
2018-08-12T19:15:06.866Z,29.88
2018-08-12T19:17:34.991Z,29.79
2018-08-12T19:20:03.331Z,29.71
2018-08-12T19:22:31.487Z,29.53
2018-08-12T19:25:00.426Z,29.45
2018-08-12T19:27:28.742Z,29.28
2018-08-12T19:29:56.902Z,29.15
2018-08-12T19:32:25.031Z,29.15
2018-08-12T19:34:53.151Z,29.00
2018-08-12T19:37:21.769Z,29.03
2018-08-12T19:39:49.878Z,28.92
2018-08-12T19:42:18.114Z,28.86
2018-08-12T19:44:46.210Z,28.84
2018-08-12T19:47:14.290Z,28.89
2018-08-12T19:49:42.558Z,28.65
2018-08-12T19:52:10.758Z,28.67
2018-08-12T19:54:39.062Z,28.67
2018-08-12T19:57:07.522Z,28.52
2018-08-12T19:59:35.649Z,28.37
2018-08-12T20:02:03.924Z,28.37
2018-08-12T20:04:32.020Z,28.37
2018-08-12T20:07:00.496Z,28.26
2018-08-12T20:09:28.596Z,28.09
2018-08-12T20:11:56.799Z,28.01
2018-08-12T20:14:24.951Z,27.87
2018-08-12T20:16:54.086Z,27.70
2018-08-12T20:19:22.388Z,27.64
2018-08-12T20:21:50.486Z,27.69
2018-08-12T20:24:18.698Z,27.80
2018-08-12T20:26:46.750Z,27.78
2018-08-12T20:29:14.950Z,27.76
2018-08-12T20:31:43.330Z,27.62
2018-08-12T20:34:11.606Z,27.56
2018-08-12T20:36:39.856Z,27.31
2018-08-12T20:39:09.950Z,27.29
2018-08-12T20:41:38.188Z,27.15
2018-08-12T20:44:06.331Z,27.24
2018-08-12T20:46:34.542Z,27.15
2018-08-12T20:49:02.721Z,27.07
2018-08-12T20:51:31.346Z,26.88
2018-08-12T20:53:59.619Z,26.92
2018-08-12T20:56:27.810Z,26.85
2018-08-12T20:58:56.006Z,26.70
2018-08-12T21:01:24.150Z,26.65
2018-08-12T21:03:52.323Z,26.83
2018-08-12T21:06:20.440Z,26.73
2018-08-12T21:08:48.573Z,26.53
2018-08-12T21:11:16.914Z,26.42
2018-08-12T21:13:45.033Z,26.44
2018-08-12T21:16:13.166Z,26.36
2018-08-12T21:18:41.294Z,26.52
2018-08-12T21:21:09.479Z,26.44
2018-08-12T21:23:37.573Z,26.08
2018-08-12T21:26:06.831Z,25.99
2018-08-12T21:28:35.166Z,26.04
2018-08-12T21:31:03.688Z,25.93
2018-08-12T21:33:31.971Z,25.80
2018-08-12T21:36:01.649Z,25.98
2018-08-12T21:38:30.062Z,25.99
2018-08-12T21:40:58.308Z,25.79
2018-08-12T21:43:27.241Z,25.40
2018-08-12T21:45:55.376Z,25.45
2018-08-12T21:48:23.550Z,25.70
2018-08-12T21:50:51.679Z,25.68
2018-08-12T21:53:19.870Z,25.61
2018-08-12T21:55:48.219Z,25.50
2018-08-12T21:58:22.919Z,25.40
2018-08-12T22:00:56.201Z,25.22
2018-08-12T22:03:29.192Z,25.22
2018-08-12T22:05:57.348Z,25.21
2018-08-12T22:08:25.393Z,25.14
2018-08-12T22:10:53.686Z,25.17
2018-08-12T22:13:22.054Z,25.11
2018-08-12T22:15:50.171Z,25.15
2018-08-12T22:18:18.354Z,25.19
2018-08-12T22:20:46.665Z,25.03
2018-08-12T22:23:14.818Z,25.13
2018-08-12T22:25:43.153Z,24.92
2018-08-12T22:28:11.239Z,24.98
2018-08-12T22:30:39.639Z,24.92
2018-08-12T22:33:07.786Z,24.98
2018-08-12T22:35:36.076Z,24.78
2018-08-12T22:38:04.195Z,24.79
2018-08-12T22:40:32.401Z,24.79
2018-08-12T22:43:03.559Z,24.76
2018-08-12T22:45:31.833Z,24.71
2018-08-12T22:47:59.937Z,24.53
2018-08-12T22:50:28.421Z,24.51
2018-08-12T22:52:56.629Z,24.33
2018-08-12T22:55:24.774Z,24.45
2018-08-12T22:57:53.013Z,24.53
2018-08-12T23:00:21.315Z,24.59
2018-08-12T23:02:49.758Z,24.56
2018-08-12T23:05:18.453Z,24.35
2018-08-12T23:07:46.731Z,24.23
2018-08-12T23:10:14.934Z,24.27
2018-08-12T23:12:43.095Z,24.09
2018-08-12T23:15:22.546Z,24.22
2018-08-12T23:17:50.709Z,24.43
2018-08-12T23:20:18.821Z,24.24
2018-08-12T23:22:46.955Z,24.23
2018-08-12T23:25:15.064Z,24.18
2018-08-12T23:27:43.666Z,24.10
2018-08-12T23:30:12.040Z,24.03
2018-08-12T23:32:40.552Z,24.18
2018-08-12T23:35:09.037Z,24.17
2018-08-12T23:37:37.279Z,24.15
2018-08-12T23:40:06.333Z,24.17
2018-08-12T23:45:12.397Z,23.99
2018-08-12T23:47:40.485Z,24.03
2018-08-12T23:50:09.119Z,23.98
2018-08-12T23:52:37.270Z,23.89
2018-08-12T23:55:05.536Z,23.81
2018-08-12T23:57:33.630Z,23.80
